createdAt,value
2022-10-01T00:00:31.752Z,99736.57
2022-10-01T00:01:33.780Z,99720.54
2022-10-01T00:02:37.530Z,99721.25
2022-10-01T00:03:40.469Z,99723.67
2022-10-01T00:04:42.269Z,99722.42
2022-10-01T00:05:44.720Z,99724.75
2022-10-01T00:06:46.726Z,99719.52
2022-10-01T00:07:48.641Z,99721.81
2022-10-01T00:08:50.585Z,99720.99
2022-10-01T00:09:52.385Z,99731.89
2022-10-01T00:10:55.342Z,99728.31
2022-10-01T00:11:57.714Z,99732.75
2022-10-01T00:12:59.715Z,99734.55
2022-10-01T00:14:01.606Z,99732.55
2022-10-01T00:15:06.253Z,99735.69
2022-10-01T00:16:11.917Z,99726.87
2022-10-01T00:17:14.331Z,99726.44
2022-10-01T00:18:16.357Z,99727.68
2022-10-01T00:19:18.368Z,99722.19
2022-10-01T00:20:20.271Z,99718.86
2022-10-01T00:21:25.558Z,99717.05
2022-10-01T00:22:30.749Z,99715.28
2022-10-01T00:23:32.861Z,99722.81
2022-10-01T00:24:34.673Z,99716.30
2022-10-01T00:25:36.858Z,99714.16
2022-10-01T00:26:39.391Z,99714.16
2022-10-01T00:27:46.087Z,99704.96
2022-10-01T00:28:51.821Z,99703.16
2022-10-01T00:29:54.658Z,99707.23
2022-10-01T00:30:56.563Z,99705.34
2022-10-01T00:31:58.586Z,99707.47
2022-10-01T00:33:00.558Z,99703.48
2022-10-01T00:34:03.020Z,99696.98
2022-10-01T00:35:05.705Z,99699.00
2022-10-01T00:36:09.867Z,99702.04
2022-10-01T00:37:11.924Z,99693.92
2022-10-01T00:38:13.741Z,99699.70
2022-10-01T00:39:15.589Z,99697.34
2022-10-01T00:40:20.932Z,99697.34
2022-10-01T00:41:22.788Z,99711.22
2022-10-01T00:42:26.240Z,99702.51
2022-10-01T00:43:30.993Z,99710.48
2022-10-01T00:44:36.807Z,99710.59
2022-10-01T00:45:38.925Z,99704.60
2022-10-01T00:46:44.560Z,99698.47
2022-10-01T00:47:53.210Z,99711.50
2022-10-01T00:49:01.543Z,99701.86
2022-10-01T00:50:12.992Z,99706.88
2022-10-01T00:51:15.430Z,99706.44
2022-10-01T00:52:20.989Z,99700.97
2022-10-01T00:53:24.997Z,99706.44
2022-10-01T00:54:30.626Z,99704.05
2022-10-01T00:55:36.822Z,99701.18
2022-10-01T00:56:40.302Z,99707.17
2022-10-01T00:57:43.554Z,99706.44
2022-10-01T00:58:45.911Z,99700.91
2022-10-01T00:59:50.896Z,99704.56
2022-10-01T01:00:55.282Z,99711.73
2022-10-01T01:01:57.775Z,99710.44
2022-10-01T01:03:00.225Z,99709.82
2022-10-01T01:04:02.341Z,99710.87
2022-10-01T01:05:05.991Z,99710.87
2022-10-01T01:06:09.375Z,99716.13
2022-10-01T01:07:12.279Z,99712.37
2022-10-01T01:08:15.246Z,99711.98
2022-10-01T01:09:17.314Z,99709.67
2022-10-01T01:10:31.903Z,99707.23
2022-10-01T01:11:40.640Z,99711.31
2022-10-01T01:13:04.788Z,99709.20
2022-10-01T01:14:19.344Z,99712.80
2022-10-01T01:15:31.049Z,99709.82
2022-10-01T01:16:39.604Z,99710.68
2022-10-01T01:18:03.689Z,99707.81
2022-10-01T01:19:15.468Z,99711.92
2022-10-01T01:20:21.283Z,99710.03
2022-10-01T01:21:29.604Z,99710.86
2022-10-01T01:22:34.566Z,99708.73
2022-10-01T01:23:52.458Z,99707.17
2022-10-01T01:25:10.070Z,99714.25
2022-10-01T01:26:21.866Z,99712.80
2022-10-01T01:27:27.473Z,99707.55
2022-10-01T01:28:33.113Z,99709.20
2022-10-01T01:29:44.839Z,99710.44
2022-10-01T01:30:50.156Z,99712.13
2022-10-01T01:31:55.897Z,99704.98
2022-10-01T01:33:04.543Z,99699.53
2022-10-01T01:34:10.203Z,99699.91
2022-10-01T01:35:18.868Z,99702.22
2022-10-01T01:36:30.424Z,99701.98
2022-10-01T01:37:36.952Z,99698.41
2022-10-01T01:38:42.561Z,99695.24
2022-10-01T01:39:48.390Z,99703.01
2022-10-01T01:40:53.127Z,99695.95
2022-10-01T01:41:59.138Z,99701.33
2022-10-01T01:43:04.796Z,99702.06
2022-10-01T01:44:10.476Z,99702.59
2022-10-01T01:45:16.093Z,99706.98
2022-10-01T01:46:20.215Z,99705.22
2022-10-01T01:47:24.884Z,99703.63
2022-10-01T01:48:30.137Z,99707.08
2022-10-01T01:49:33.640Z,99708.26
2022-10-01T01:50:39.902Z,99711.72
2022-10-01T01:51:54.255Z,99703.21
2022-10-01T01:52:56.755Z,99711.09
2022-10-01T01:53:59.544Z,99707.84
2022-10-01T01:55:02.242Z,99705.46
2022-10-01T01:56:07.392Z,99706.52
2022-10-01T01:57:11.034Z,99708.41
2022-10-01T01:58:13.572Z,99707.47
2022-10-01T01:59:16.920Z,99710.22
2022-10-01T02:00:19.705Z,99706.73
2022-10-01T02:01:38.534Z,99709.36
2022-10-01T02:02:44.392Z,99721.48
2022-10-01T02:03:46.538Z,99707.20
2022-10-01T02:04:54.806Z,99703.00
2022-10-01T02:06:06.167Z,99705.23
2022-10-01T02:07:31.619Z,99702.73
2022-10-01T02:08:49.543Z,99701.76
2022-10-01T02:09:57.972Z,99704.61
2022-10-01T02:11:15.875Z,99708.19
2022-10-01T02:13:59.449Z,99698.92
2022-10-01T02:15:11.581Z,99701.69
2022-10-01T02:16:44.631Z,99707.67
2022-10-01T02:18:14.918Z,99710.30
2022-10-01T02:19:30.208Z,99708.81
2022-10-01T02:20:35.846Z,99703.37
2022-10-01T02:21:40.770Z,99704.23
2022-10-01T02:23:01.870Z,99702.97
2022-10-01T02:24:27.273Z,99702.23
2022-10-01T02:25:33.052Z,99708.66
2022-10-01T02:26:37.526Z,99707.16
2022-10-01T02:27:43.214Z,99701.91
2022-10-01T02:28:49.028Z,99702.34
2022-10-01T02:29:55.143Z,99702.77
2022-10-01T02:30:59.861Z,99712.90
2022-10-01T02:32:02.090Z,99701.70
2022-10-01T02:33:06.891Z,99711.96
2022-10-01T02:34:12.827Z,99702.63
2022-10-01T02:35:17.992Z,99703.25
2022-10-01T02:36:21.547Z,99705.13
2022-10-01T02:37:26.423Z,99693.92
2022-10-01T02:38:30.297Z,99704.41
2022-10-01T02:39:34.781Z,99701.78
2022-10-01T02:40:40.583Z,99699.16
2022-10-01T02:41:45.410Z,99703.13
2022-10-01T02:42:53.814Z,99707.33
2022-10-01T02:44:02.512Z,99705.87
2022-10-01T02:45:06.553Z,99713.96
2022-10-01T02:46:18.947Z,99715.31
2022-10-01T02:47:24.657Z,99715.50
2022-10-01T02:48:26.701Z,99708.23
2022-10-01T02:49:31.112Z,99705.42
2022-10-01T02:51:59.491Z,99702.50
2022-10-01T02:53:08.126Z,99701.87
2022-10-01T02:55:46.978Z,99705.39
2022-10-01T02:56:54.240Z,99714.17
2022-10-01T02:57:56.383Z,99713.13
2022-10-01T02:58:58.301Z,99720.58
2022-10-01T03:00:03.146Z,99715.05
2022-10-01T03:01:05.326Z,99720.69
2022-10-01T03:02:07.664Z,99708.07
2022-10-01T03:03:09.783Z,99711.02
2022-10-01T03:04:11.646Z,99705.67
2022-10-01T03:05:14.512Z,99700.95
2022-10-01T03:06:16.894Z,99702.19
2022-10-01T03:07:18.736Z,99698.45
2022-10-01T03:08:20.583Z,99701.41
2022-10-01T03:09:22.334Z,99701.19
2022-10-01T03:10:24.108Z,99703.17
2022-10-01T03:11:26.908Z,99702.23
2022-10-01T03:12:29.603Z,99699.51
2022-10-01T03:13:31.580Z,99697.63
2022-10-01T03:14:33.420Z,99695.77
2022-10-01T03:15:36.135Z,99696.80
2022-10-01T03:16:39.239Z,99697.99
2022-10-01T03:17:41.406Z,99697.52
2022-10-01T03:18:43.257Z,99701.36
2022-10-01T03:19:45.310Z,99704.81
2022-10-01T03:20:47.545Z,99708.07
2022-10-01T03:21:50.066Z,99711.44
2022-10-01T03:22:51.977Z,99714.06
2022-10-01T03:23:54.967Z,99712.30
2022-10-01T03:24:57.915Z,99719.25
2022-10-01T03:26:00.121Z,99721.63
2022-10-01T03:27:02.039Z,99711.36
2022-10-01T03:28:04.942Z,99718.72
2022-10-01T03:29:06.871Z,99717.14
2022-10-01T03:30:11.135Z,99725.75
2022-10-01T03:31:13.189Z,99712.94
2022-10-01T03:32:16.479Z,99712.59
2022-10-01T03:33:18.379Z,99720.66
2022-10-01T03:34:21.172Z,99714.45
2022-10-01T03:35:22.971Z,99716.09
2022-10-01T03:36:24.721Z,99724.63
2022-10-01T03:37:26.714Z,99724.63
2022-10-01T03:38:29.154Z,99718.91
2022-10-01T03:39:31.262Z,99730.80
2022-10-01T03:40:33.187Z,99719.22
2022-10-01T03:41:36.508Z,99721.45
2022-10-01T03:42:38.860Z,99721.45
2022-10-01T03:43:40.667Z,99722.20
2022-10-01T03:44:43.248Z,99727.05
2022-10-01T03:45:45.670Z,99727.05
2022-10-01T03:46:48.247Z,99725.37
2022-10-01T03:47:54.178Z,99716.70
2022-10-01T03:48:57.023Z,99716.59
2022-10-01T03:49:58.928Z,99713.59
2022-10-01T03:51:00.696Z,99710.97
2022-10-01T03:52:04.123Z,99711.91
2022-10-01T03:53:06.117Z,99711.73
2022-10-01T03:54:08.659Z,99712.77
2022-10-01T03:55:10.447Z,99701.64
2022-10-01T03:56:13.416Z,99712.56
2022-10-01T03:57:15.282Z,99701.64
2022-10-01T03:58:18.285Z,99703.40
2022-10-01T03:59:21.345Z,99701.05
2022-10-01T04:00:23.829Z,99711.45
2022-10-01T04:01:26.066Z,99707.91
2022-10-01T04:02:28.703Z,99705.35
2022-10-01T04:03:31.291Z,99710.78
2022-10-01T04:04:33.205Z,99716.02
2022-10-01T04:05:34.911Z,99714.49
2022-10-01T04:06:36.770Z,99714.59
2022-10-01T04:07:40.703Z,99713.37
2022-10-01T04:08:42.757Z,99713.37
2022-10-01T04:09:44.675Z,99712.70
2022-10-01T04:10:46.933Z,99715.42
2022-10-01T04:11:48.719Z,99715.58
2022-10-01T04:12:50.581Z,99720.81
2022-10-01T04:13:52.579Z,99711.37
2022-10-01T04:14:56.581Z,99724.55
2022-10-01T04:15:58.389Z,99717.63
2022-10-01T04:17:00.300Z,99716.04
2022-10-01T04:18:02.118Z,99714.09
2022-10-01T04:19:04.765Z,99717.80
2022-10-01T04:20:13.052Z,99717.80
2022-10-01T04:21:18.012Z,99726.56
2022-10-01T04:22:19.846Z,99731.78
2022-10-01T04:23:22.804Z,99733.31
2022-10-01T04:24:24.727Z,99733.31
2022-10-01T04:25:27.470Z,99733.31
2022-10-01T04:26:29.308Z,99729.77
2022-10-01T04:27:32.135Z,99729.31
2022-10-01T04:28:34.319Z,99729.31
2022-10-01T04:29:40.053Z,99729.22
2022-10-01T04:30:43.566Z,99730.50
2022-10-01T04:31:45.628Z,99726.14
2022-10-01T04:32:47.459Z,99717.44
2022-10-01T04:33:49.842Z,99725.02
2022-10-01T04:34:51.628Z,99719.13
2022-10-01T04:35:55.132Z,99724.70
2022-10-01T04:36:57.137Z,99721.33
2022-10-01T04:38:04.916Z,99724.91
2022-10-01T04:39:06.752Z,99719.84
2022-10-01T04:40:09.740Z,99724.23
2022-10-01T04:41:12.111Z,99725.23
2022-10-01T04:42:14.391Z,99729.47
2022-10-01T04:43:16.214Z,99736.34
2022-10-01T04:44:17.985Z,99733.83
2022-10-01T04:45:19.861Z,99733.83
2022-10-01T04:46:21.905Z,99734.59
2022-10-01T04:47:23.824Z,99730.12
2022-10-01T04:48:25.506Z,99734.34
2022-10-01T04:49:27.297Z,99728.25
2022-10-01T04:50:29.022Z,99734.50
2022-10-01T04:51:30.758Z,99737.97
2022-10-01T04:52:32.639Z,99744.02
2022-10-01T04:53:34.732Z,99743.20
2022-10-01T04:54:36.969Z,99738.89
2022-10-01T04:55:38.999Z,99740.59
2022-10-01T04:56:40.982Z,99738.54
2022-10-01T04:57:43.428Z,99734.14
2022-10-01T04:58:45.303Z,99730.60
2022-10-01T04:59:48.067Z,99733.31
2022-10-01T05:00:50.283Z,99732.38
2022-10-01T05:01:53.095Z,99726.20
2022-10-01T05:02:55.414Z,99738.34
2022-10-01T05:03:57.861Z,99734.05
2022-10-01T05:05:01.260Z,99734.64
2022-10-01T05:06:03.495Z,99736.39
2022-10-01T05:07:05.598Z,99736.33
2022-10-01T05:08:07.938Z,99739.87
2022-10-01T05:09:09.724Z,99739.01
2022-10-01T05:10:16.453Z,99738.95
2022-10-01T05:11:18.594Z,99741.27
2022-10-01T05:12:24.472Z,99746.42
2022-10-01T05:13:24.099Z,99746.23
2022-10-01T05:14:25.993Z,99740.84
2022-10-01T05:15:28.777Z,99742.69
2022-10-01T05:16:30.806Z,99740.17
2022-10-01T05:17:32.993Z,99743.45
2022-10-01T05:18:34.994Z,99744.54
2022-10-01T05:19:37.531Z,99748.11
2022-10-01T05:20:40.002Z,99748.94
2022-10-01T05:21:43.161Z,99754.94
2022-10-01T05:22:46.294Z,99747.75
2022-10-01T05:23:48.046Z,99752.62
2022-10-01T05:24:49.893Z,99756.98
2022-10-01T05:25:51.942Z,99738.62
2022-10-01T05:26:53.952Z,99738.62
2022-10-01T05:28:01.241Z,99750.20
2022-10-01T05:29:03.746Z,99760.50
2022-10-01T05:30:08.412Z,99756.92
2022-10-01T05:31:11.811Z,99756.92
2022-10-01T05:32:14.447Z,99759.27
2022-10-01T05:33:16.381Z,99754.70
2022-10-01T05:34:18.374Z,99750.39
2022-10-01T05:35:20.329Z,99750.33
2022-10-01T05:36:23.509Z,99743.30
2022-10-01T05:37:25.873Z,99742.37
2022-10-01T05:38:27.791Z,99740.32
2022-10-01T05:39:30.364Z,99735.84
2022-10-01T05:40:33.047Z,99744.45
2022-10-01T05:41:35.316Z,99750.04
2022-10-01T05:42:37.637Z,99751.55
2022-10-01T05:43:39.648Z,99747.25
2022-10-01T05:44:41.823Z,99750.04
2022-10-01T05:45:44.172Z,99753.23
2022-10-01T05:46:46.788Z,99755.20
2022-10-01T05:47:58.594Z,99751.45
2022-10-01T05:49:00.864Z,99758.64
2022-10-01T05:50:03.412Z,99757.44
2022-10-01T05:51:05.578Z,99762.58
2022-10-01T05:52:08.314Z,99758.27
2022-10-01T05:53:11.837Z,99758.27
2022-10-01T05:54:13.934Z,99756.58
2022-10-01T05:55:15.840Z,99755.55
2022-10-01T05:56:18.345Z,99757.89
2022-10-01T05:57:20.411Z,99754.34
2022-10-01T05:58:22.376Z,99748.94
2022-10-01T05:59:27.342Z,99757.34
2022-10-01T06:00:29.003Z,99755.48
2022-10-01T06:01:31.830Z,99756.03
2022-10-01T06:02:34.399Z,99751.72
2022-10-01T06:03:37.503Z,99753.20
2022-10-01T06:04:41.267Z,99753.03
2022-10-01T06:05:44.222Z,99747.34
2022-10-01T06:06:47.454Z,99739.20
2022-10-01T06:07:51.139Z,99738.91
2022-10-01T06:08:53.539Z,99746.27
2022-10-01T06:09:56.000Z,99739.17
2022-10-01T06:10:59.221Z,99749.47
2022-10-01T06:12:02.664Z,99733.54
2022-10-01T06:13:05.113Z,99747.39
2022-10-01T06:14:08.054Z,99736.91
2022-10-01T06:15:10.938Z,99738.38
2022-10-01T06:16:15.287Z,99739.64
2022-10-01T06:17:17.395Z,99743.73
2022-10-01T06:18:19.441Z,99740.17
2022-10-01T06:19:21.247Z,99741.75
2022-10-01T06:20:23.746Z,99746.06
2022-10-01T06:21:26.956Z,99741.94
2022-10-01T06:22:28.932Z,99749.51
2022-10-01T06:23:30.915Z,99746.60
2022-10-01T06:24:32.769Z,99745.56
2022-10-01T06:25:34.750Z,99753.95
2022-10-01T06:26:37.963Z,99747.89
2022-10-01T06:27:40.019Z,99746.66
2022-10-01T06:28:41.842Z,99737.86
2022-10-01T06:29:45.938Z,99748.77
2022-10-01T06:30:48.389Z,99750.00
2022-10-01T06:31:50.400Z,99751.09
2022-10-01T06:32:54.799Z,99747.03
2022-10-01T06:33:57.157Z,99745.91
2022-10-01T06:34:59.057Z,99757.22
2022-10-01T06:36:03.135Z,99745.91
2022-10-01T06:37:05.522Z,99737.08
2022-10-01T06:38:07.696Z,99748.61
2022-10-01T06:39:09.365Z,99748.72
2022-10-01T06:40:11.873Z,99750.74
2022-10-01T06:41:14.763Z,99752.84
2022-10-01T06:42:16.581Z,99750.22
2022-10-01T06:43:18.446Z,99765.25
2022-10-01T06:44:21.143Z,99765.25
2022-10-01T06:45:23.950Z,99762.41
2022-10-01T06:46:26.133Z,99766.72
2022-10-01T06:47:28.301Z,99775.97
2022-10-01T06:48:34.308Z,99768.40
2022-10-01T06:49:36.276Z,99764.95
2022-10-01T06:50:38.993Z,99775.33
2022-10-01T06:51:41.012Z,99772.59
2022-10-01T06:52:43.061Z,99773.75
2022-10-01T06:53:44.681Z,99772.21
2022-10-01T06:54:48.248Z,99772.21
2022-10-01T06:55:50.827Z,99761.64
2022-10-01T06:56:52.854Z,99768.35
2022-10-01T06:57:56.497Z,99771.63
2022-10-01T06:58:59.376Z,99771.63
2022-10-01T07:00:01.226Z,99761.84
2022-10-01T07:01:03.156Z,99764.70
2022-10-01T07:02:05.981Z,99763.95
2022-10-01T07:03:16.754Z,99770.46
2022-10-01T07:04:22.107Z,99761.74
2022-10-01T07:05:26.266Z,99759.55
2022-10-01T07:06:28.427Z,99765.31
2022-10-01T07:07:37.006Z,99758.19
2022-10-01T07:09:41.037Z,99758.38
2022-10-01T07:10:43.502Z,99752.27
2022-10-01T07:11:45.211Z,99746.88
2022-10-01T07:12:48.321Z,99758.12
2022-10-01T07:13:54.554Z,99756.11
2022-10-01T07:14:56.007Z,99764.37
2022-10-01T07:15:57.910Z,99767.63
2022-10-01T07:17:00.133Z,99763.53
2022-10-01T07:18:03.889Z,99766.16
2022-10-01T07:19:06.556Z,99760.19
2022-10-01T07:20:08.966Z,99761.84
2022-10-01T07:21:11.177Z,99764.47
2022-10-01T07:22:13.767Z,99758.89
2022-10-01T07:23:16.765Z,99757.20
2022-10-01T07:24:19.512Z,99761.19
2022-10-01T07:25:26.929Z,99750.47
2022-10-01T07:26:29.445Z,99751.91
2022-10-01T07:27:31.235Z,99759.02
2022-10-01T07:28:33.499Z,99766.45
2022-10-01T07:29:35.346Z,99766.33
2022-10-01T07:30:38.761Z,99757.98
2022-10-01T07:31:40.724Z,99765.05
2022-10-01T07:32:47.914Z,99754.33
2022-10-01T07:33:53.896Z,99770.10
2022-10-01T07:34:55.952Z,99762.09
2022-10-01T07:36:03.792Z,99762.09
2022-10-01T07:37:06.830Z,99761.84
2022-10-01T07:38:09.145Z,99766.89
2022-10-01T07:39:12.437Z,99770.34
2022-10-01T07:40:15.554Z,99766.44
2022-10-01T07:41:17.978Z,99773.59
2022-10-01T07:42:20.569Z,99771.70
2022-10-01T07:43:23.775Z,99774.33
2022-10-01T07:44:25.925Z,99782.22
2022-10-01T07:45:28.103Z,99761.17
2022-10-01T07:46:34.503Z,99771.48
2022-10-01T07:47:34.789Z,99771.23
2022-10-01T07:48:36.773Z,99772.19
2022-10-01T07:49:40.698Z,99779.13
2022-10-01T07:50:43.599Z,99776.01
2022-10-01T07:51:45.481Z,99770.26
2022-10-01T07:52:56.946Z,99768.24
2022-10-01T07:53:58.813Z,99766.22
2022-10-01T07:55:00.824Z,99767.41
2022-10-01T07:56:04.153Z,99765.77
2022-10-01T07:57:12.805Z,99760.64
2022-10-01T07:58:12.539Z,99764.13
2022-10-01T07:59:15.232Z,99759.41
2022-10-01T08:00:17.660Z,99752.24
2022-10-01T08:01:19.585Z,99756.09
2022-10-01T08:02:21.604Z,99749.02
2022-10-01T08:03:27.691Z,99755.13
2022-10-01T08:04:30.389Z,99747.45
2022-10-01T08:05:34.864Z,99761.09
2022-10-01T08:06:37.828Z,99746.51
2022-10-01T08:07:40.800Z,99755.48
2022-10-01T08:08:42.978Z,99752.75
2022-10-01T08:09:45.208Z,99748.31
2022-10-01T08:10:48.706Z,99755.23
2022-10-01T08:11:50.811Z,99758.20
2022-10-01T08:13:01.161Z,99755.95
2022-10-01T08:14:05.289Z,99749.14
2022-10-01T08:16:20.314Z,99735.72
2022-10-01T08:17:24.971Z,99746.98
2022-10-01T08:18:26.035Z,99745.05
2022-10-01T08:19:27.977Z,99745.55
2022-10-01T08:20:31.459Z,99734.30
2022-10-01T08:21:34.065Z,99744.95
2022-10-01T08:22:41.700Z,99744.95
2022-10-01T08:23:40.886Z,99741.94
2022-10-01T08:24:42.676Z,99734.77
2022-10-01T08:25:46.049Z,99743.63
2022-10-01T08:26:52.730Z,99740.77
2022-10-01T08:27:55.164Z,99743.65
2022-10-01T08:28:57.288Z,99742.91
2022-10-01T08:29:59.990Z,99749.16
2022-10-01T08:31:06.810Z,99752.03
2022-10-01T08:32:10.061Z,99748.64
2022-10-01T08:33:13.370Z,99732.48
2022-10-01T08:34:16.078Z,99726.48
2022-10-01T08:35:19.931Z,99727.80
2022-10-01T08:36:22.245Z,99720.16
2022-10-01T08:37:26.515Z,99704.22
2022-10-01T08:38:29.225Z,99716.30
2022-10-01T08:39:31.153Z,99725.98
2022-10-01T08:40:34.872Z,99720.58
2022-10-01T08:43:01.601Z,99715.35
2022-10-01T08:44:07.018Z,99729.52
2022-10-01T08:45:16.225Z,99723.25
2022-10-01T08:46:22.151Z,99729.71
2022-10-01T08:47:33.739Z,99723.74
2022-10-01T08:48:57.507Z,99729.27
2022-10-01T08:50:04.836Z,99726.28
2022-10-01T08:51:27.535Z,99728.78
2022-10-01T08:52:33.116Z,99733.09
2022-10-01T08:53:56.391Z,99732.86
2022-10-01T08:55:17.170Z,99730.20
2022-10-01T08:56:26.129Z,99730.90
2022-10-01T08:57:41.761Z,99729.81
2022-10-01T08:58:48.241Z,99733.53
2022-10-01T08:59:59.267Z,99727.03
2022-10-01T09:01:01.469Z,99732.06
2022-10-01T09:02:12.718Z,99739.02
2022-10-01T09:03:18.216Z,99743.55
2022-10-01T09:04:23.139Z,99737.58
2022-10-01T09:05:53.906Z,99742.27
2022-10-01T09:08:21.807Z,99739.98
2022-10-01T09:09:33.651Z,99747.92
2022-10-01T09:10:48.859Z,99739.06
2022-10-01T09:12:21.025Z,99739.06
2022-10-01T09:13:50.093Z,99738.08
2022-10-01T09:15:15.865Z,99738.80
2022-10-01T09:16:30.902Z,99739.30
2022-10-01T09:17:48.797Z,99735.44
2022-10-01T09:19:03.991Z,99737.36
2022-10-01T09:20:25.077Z,99740.95
2022-10-01T09:21:47.947Z,99734.26
2022-10-01T09:23:12.353Z,99735.11
2022-10-01T09:24:17.639Z,99739.30
2022-10-01T09:25:24.285Z,99748.39
2022-10-01T09:26:26.199Z,99748.63
2022-10-01T09:27:28.012Z,99744.80
2022-10-01T09:28:34.718Z,99744.80
2022-10-01T09:29:40.458Z,99736.03
2022-10-01T09:30:46.052Z,99742.13
2022-10-01T09:31:50.576Z,99745.29
2022-10-01T09:32:55.649Z,99745.29
2022-10-01T09:34:15.754Z,99751.39
2022-10-01T09:35:36.490Z,99752.67
2022-10-01T09:38:01.461Z,99747.15
2022-10-01T09:39:21.736Z,99742.11
2022-10-01T09:40:36.323Z,99748.83
2022-10-01T09:41:38.585Z,99746.64
2022-10-01T09:42:41.930Z,99749.66
2022-10-01T09:43:45.294Z,99759.16
2022-10-01T09:44:47.338Z,99767.56
2022-10-01T09:45:50.748Z,99757.52
2022-10-01T09:46:53.945Z,99749.56
2022-10-01T09:47:59.622Z,99756.52
2022-10-01T09:49:10.694Z,99755.07
2022-10-01T09:50:18.173Z,99752.23
2022-10-01T09:51:26.162Z,99748.62
2022-10-01T09:52:35.646Z,99752.23
2022-10-01T09:54:01.969Z,99751.25
2022-10-01T09:55:11.069Z,99750.30
2022-10-01T09:58:49.166Z,99743.05
2022-10-01T10:00:07.758Z,99740.43
2022-10-01T10:01:16.837Z,99743.28
2022-10-01T10:03:46.569Z,99748.27
2022-10-01T10:04:57.092Z,99750.23
2022-10-01T10:06:00.273Z,99743.05
2022-10-01T10:07:06.256Z,99739.83
2022-10-01T10:08:13.890Z,99745.42
2022-10-01T10:09:20.261Z,99737.86
2022-10-01T10:10:28.636Z,99747.81
2022-10-01T10:11:33.381Z,99742.55
2022-10-01T10:12:35.957Z,99739.53
2022-10-01T10:13:44.353Z,99738.95
2022-10-01T10:14:46.298Z,99731.03
2022-10-01T10:15:58.032Z,99729.81
2022-10-01T10:17:12.389Z,99738.89
2022-10-01T10:18:23.945Z,99737.21
2022-10-01T10:19:27.527Z,99741.18
2022-10-01T10:20:33.281Z,99750.45
2022-10-01T10:21:35.743Z,99753.47
2022-10-01T10:22:37.906Z,99755.75
2022-10-01T10:23:52.890Z,99745.47
2022-10-01T10:24:56.139Z,99743.06
2022-10-01T10:26:05.977Z,99741.02
2022-10-01T10:27:27.238Z,99753.84
2022-10-01T10:28:44.117Z,99746.88
2022-10-01T10:29:46.620Z,99750.23
2022-10-01T10:30:54.355Z,99747.09
2022-10-01T10:31:59.190Z,99751.87
2022-10-01T10:33:06.390Z,99736.25
2022-10-01T10:34:17.895Z,99725.13
2022-10-01T10:35:25.934Z,99739.23
2022-10-01T10:36:33.808Z,99749.52
2022-10-01T10:37:39.262Z,99738.95
2022-10-01T10:38:45.744Z,99734.78
2022-10-01T10:39:50.524Z,99737.84
2022-10-01T10:40:52.656Z,99738.34
2022-10-01T10:42:00.984Z,99727.25
2022-10-01T10:43:03.195Z,99735.53
2022-10-01T10:44:08.869Z,99726.37
2022-10-01T10:45:18.055Z,99732.11
2022-10-01T10:46:27.116Z,99734.58
2022-10-01T10:47:29.624Z,99729.89
2022-10-01T10:48:35.150Z,99731.38
2022-10-01T10:49:52.467Z,99720.19
2022-10-01T10:51:03.194Z,99715.23
2022-10-01T10:52:09.101Z,99714.20
2022-10-01T10:53:26.407Z,99722.88
2022-10-01T10:54:36.976Z,99715.92
2022-10-01T10:55:39.079Z,99709.48
2022-10-01T10:56:45.614Z,99707.18
2022-10-01T10:57:48.393Z,99711.50
2022-10-01T10:58:51.765Z,99715.78
2022-10-01T10:59:57.687Z,99711.80
2022-10-01T11:01:10.295Z,99714.66
2022-10-01T11:02:16.295Z,99717.73
2022-10-01T11:03:24.851Z,99716.50
2022-10-01T11:04:39.165Z,99712.50
2022-10-01T11:05:42.244Z,99717.49
2022-10-01T11:06:49.216Z,99714.38
2022-10-01T11:08:00.365Z,99723.02
2022-10-01T11:09:05.901Z,99704.77
2022-10-01T11:10:25.333Z,99717.05
2022-10-01T11:11:56.509Z,99711.77
2022-10-01T11:13:23.646Z,99717.58
2022-10-01T11:14:54.877Z,99698.91
2022-10-01T11:16:18.788Z,99704.97
2022-10-01T11:18:59.997Z,99714.38
2022-10-01T11:20:28.847Z,99715.92
2022-10-01T11:22:05.204Z,99714.52
2022-10-01T11:23:19.988Z,99702.28
2022-10-01T11:24:37.623Z,99702.72
2022-10-01T11:25:46.245Z,99700.94
2022-10-01T11:26:54.544Z,99707.48
2022-10-01T11:28:09.615Z,99704.98
2022-10-01T11:29:24.723Z,99713.61
2022-10-01T11:30:30.508Z,99698.60
2022-10-01T11:31:39.558Z,99698.82
2022-10-01T11:32:54.279Z,99704.92
2022-10-01T11:34:05.613Z,99705.06
2022-10-01T11:35:17.577Z,99696.18
2022-10-01T11:36:36.055Z,99694.69
2022-10-01T11:37:42.144Z,99694.16
2022-10-01T11:38:54.148Z,99688.34
2022-10-01T11:39:59.921Z,99691.23
2022-10-01T11:41:27.019Z,99696.90
2022-10-01T11:42:32.780Z,99694.86
2022-10-01T11:43:41.352Z,99695.47
2022-10-01T11:44:50.102Z,99693.70
2022-10-01T11:45:55.901Z,99691.20
2022-10-01T11:47:05.842Z,99685.21
2022-10-01T11:48:29.567Z,99683.67
2022-10-01T11:49:53.937Z,99691.20
2022-10-01T11:50:59.577Z,99693.41
2022-10-01T11:52:08.591Z,99683.67
2022-10-01T11:53:35.473Z,99687.85
2022-10-01T11:54:41.151Z,99688.18
2022-10-01T11:57:09.239Z,99688.59
2022-10-01T11:58:21.018Z,99681.58
2022-10-01T11:59:37.819Z,99685.17
2022-10-01T12:00:42.600Z,99692.80
2022-10-01T12:02:07.309Z,99683.08
2022-10-01T12:03:13.403Z,99689.80
2022-10-01T12:04:33.500Z,99692.53
2022-10-01T12:05:36.167Z,99684.52
2022-10-01T12:06:50.732Z,99682.84
2022-10-01T12:08:00.437Z,99690.03
2022-10-01T12:09:09.010Z,99677.43
2022-10-01T12:10:31.705Z,99682.09
2022-10-01T12:11:56.953Z,99682.09
2022-10-01T12:13:14.940Z,99676.30
2022-10-01T12:15:47.214Z,99672.94
2022-10-01T12:16:53.231Z,99669.52
2022-10-01T12:18:02.612Z,99660.41
2022-10-01T12:19:21.653Z,99663.63
2022-10-01T12:20:39.394Z,99653.97
2022-10-01T12:21:47.865Z,99657.36
2022-10-01T12:22:52.411Z,99660.95
2022-10-01T12:24:01.164Z,99664.45
2022-10-01T12:25:05.050Z,99663.01
2022-10-01T12:26:11.445Z,99652.46
2022-10-01T12:27:38.541Z,99660.64
2022-10-01T12:28:49.164Z,99658.83
2022-10-01T12:29:55.565Z,99666.60
2022-10-01T12:31:04.261Z,99664.23
2022-10-01T12:32:23.230Z,99666.88
2022-10-01T12:33:51.646Z,99670.20
2022-10-01T12:35:07.295Z,99665.06
2022-10-01T12:36:19.632Z,99666.60
2022-10-01T12:37:38.501Z,99664.45
2022-10-01T12:38:49.683Z,99667.56
2022-10-01T12:40:04.413Z,99662.11
2022-10-01T12:41:27.840Z,99656.84
2022-10-01T12:42:53.530Z,99651.80
2022-10-01T12:44:20.675Z,99663.44
2022-10-01T12:45:42.036Z,99657.80
2022-10-01T12:46:53.308Z,99662.56
2022-10-01T12:48:11.404Z,99654.38
2022-10-01T12:49:26.348Z,99653.31
2022-10-01T12:50:42.151Z,99658.83
2022-10-01T12:51:48.559Z,99658.59
2022-10-01T12:53:04.068Z,99647.91
2022-10-01T12:54:28.739Z,99650.41
2022-10-01T12:55:44.018Z,99656.13
2022-10-01T12:57:06.601Z,99658.24
2022-10-01T12:58:38.049Z,99646.73
2022-10-01T13:00:00.262Z,99656.84
2022-10-01T13:01:09.194Z,99646.47
2022-10-01T13:02:27.333Z,99646.95
2022-10-01T13:03:44.563Z,99641.40
2022-10-01T13:06:15.304Z,99637.94
2022-10-01T13:07:24.378Z,99639.34
2022-10-01T13:08:46.394Z,99639.21
2022-10-01T13:10:18.209Z,99636.19
2022-10-01T13:11:42.031Z,99630.61
2022-10-01T13:13:00.056Z,99629.38
2022-10-01T13:14:04.466Z,99624.55
2022-10-01T13:15:16.548Z,99621.53
2022-10-01T13:16:34.808Z,99621.67
2022-10-01T13:17:41.788Z,99631.12
2022-10-01T13:19:04.583Z,99627.53
2022-10-01T13:20:14.591Z,99625.58
2022-10-01T13:21:53.134Z,99633.35
2022-10-01T13:23:13.922Z,99627.19